sensor_id;sensor_type;location;lat;lon;timestamp;temperature;humidity
12761;DHT22;6444;49.742;6.114;2024-03-07T00:00:13;8.70;99.90
12761;DHT22;6444;49.742;6.114;2024-03-07T00:02:42;8.20;99.90
12761;DHT22;6444;49.742;6.114;2024-03-07T00:05:08;8.50;99.90
12761;DHT22;6444;49.742;6.114;2024-03-07T00:07:35;8.80;99.90
12761;DHT22;6444;49.742;6.114;2024-03-07T00:10:02;8.90;99.90
12761;DHT22;6444;49.742;6.114;2024-03-07T00:12:28;9.20;99.90
12761;DHT22;6444;49.742;6.114;2024-03-07T00:14:55;8.90;99.90
12761;DHT22;6444;49.742;6.114;2024-03-07T00:17:21;9.00;99.90
12761;DHT22;6444;49.742;6.114;2024-03-07T00:19:48;9.00;99.90
12761;DHT22;6444;49.742;6.114;2024-03-07T00:22:14;8.80;99.90
12761;DHT22;6444;49.742;6.114;2024-03-07T00:24:42;9.00;99.90
12761;DHT22;6444;49.742;6.114;2024-03-07T00:27:08;9.00;99.90
12761;DHT22;6444;49.742;6.114;2024-03-07T00:29:35;8.90;99.90
12761;DHT22;6444;49.742;6.114;2024-03-07T00:32:02;8.50;99.90
12761;DHT22;6444;49.742;6.114;2024-03-07T00:34:28;8.20;99.90
12761;DHT22;6444;49.742;6.114;2024-03-07T00:36:56;7.30;99.90
12761;DHT22;6444;49.742;6.114;2024-03-07T00:39:25;7.30;99.90
12761;DHT22;6444;49.742;6.114;2024-03-07T00:41:52;7.60;99.90
12761;DHT22;6444;49.742;6.114;2024-03-07T00:44:19;7.30;99.90
12761;DHT22;6444;49.742;6.114;2024-03-07T00:46:45;7.70;99.90
12761;DHT22;6444;49.742;6.114;2024-03-07T00:49:12;7.20;99.90
12761;DHT22;6444;49.742;6.114;2024-03-07T00:51:38;6.80;99.90
12761;DHT22;6444;49.742;6.114;2024-03-07T00:54:05;7.00;99.90
12761;DHT22;6444;49.742;6.114;2024-03-07T00:56:32;7.30;99.90
12761;DHT22;6444;49.742;6.114;2024-03-07T00:58:58;7.70;99.90
12761;DHT22;6444;49.742;6.114;2024-03-07T01:01:26;8.00;99.90
12761;DHT22;6444;49.742;6.114;2024-03-07T01:03:52;7.90;99.90
12761;DHT22;6444;49.742;6.114;2024-03-07T01:06:19;7.90;99.90
12761;DHT22;6444;49.742;6.114;2024-03-07T01:08:46;7.70;99.90
12761;DHT22;6444;49.742;6.114;2024-03-07T01:11:13;7.70;99.90
12761;DHT22;6444;49.742;6.114;2024-03-07T01:13:40;8.10;99.90
12761;DHT22;6444;49.742;6.114;2024-03-07T01:16:06;8.40;99.90
12761;DHT22;6444;49.742;6.114;2024-03-07T01:18:34;8.70;99.90
12761;DHT22;6444;49.742;6.114;2024-03-07T01:21:03;8.70;99.90
12761;DHT22;6444;49.742;6.114;2024-03-07T01:23:30;8.80;99.90
12761;DHT22;6444;49.742;6.114;2024-03-07T01:25:59;8.80;99.90
12761;DHT22;6444;49.742;6.114;2024-03-07T01:28:26;9.00;99.90
12761;DHT22;6444;49.742;6.114;2024-03-07T01:30:53;9.20;99.90
12761;DHT22;6444;49.742;6.114;2024-03-07T01:33:20;9.10;99.90
12761;DHT22;6444;49.742;6.114;2024-03-07T01:35:47;9.00;99.90
12761;DHT22;6444;49.742;6.114;2024-03-07T01:38:13;9.10;99.90
12761;DHT22;6444;49.742;6.114;2024-03-07T01:40:40;8.90;99.90
12761;DHT22;6444;49.742;6.114;2024-03-07T01:43:10;8.80;99.90
12761;DHT22;6444;49.742;6.114;2024-03-07T01:45:33;8.50;99.90
12761;DHT22;6444;49.742;6.114;2024-03-07T01:48:00;8.30;99.90
12761;DHT22;6444;49.742;6.114;2024-03-07T01:50:26;9.00;99.90
12761;DHT22;6444;49.742;6.114;2024-03-07T01:52:53;9.40;99.90
12761;DHT22;6444;49.742;6.114;2024-03-07T01:55:20;9.50;99.90
12761;DHT22;6444;49.742;6.114;2024-03-07T01:57:47;9.70;99.90
12761;DHT22;6444;49.742;6.114;2024-03-07T02:00:13;9.80;99.90
12761;DHT22;6444;49.742;6.114;2024-03-07T02:02:40;10.00;99.90
12761;DHT22;6444;49.742;6.114;2024-03-07T02:05:06;10.00;99.90
12761;DHT22;6444;49.742;6.114;2024-03-07T02:07:33;10.00;99.90
12761;DHT22;6444;49.742;6.114;2024-03-07T02:10:00;9.40;99.90
12761;DHT22;6444;49.742;6.114;2024-03-07T02:12:26;9.10;99.90
12761;DHT22;6444;49.742;6.114;2024-03-07T02:14:53;8.70;99.90
12761;DHT22;6444;49.742;6.114;2024-03-07T02:17:20;8.00;99.90
12761;DHT22;6444;49.742;6.114;2024-03-07T02:19:46;8.50;99.90
12761;DHT22;6444;49.742;6.114;2024-03-07T02:22:13;9.10;99.90
12761;DHT22;6444;49.742;6.114;2024-03-07T02:24:39;9.10;99.90
12761;DHT22;6444;49.742;6.114;2024-03-07T02:27:06;9.10;99.90
12761;DHT22;6444;49.742;6.114;2024-03-07T02:29:33;9.20;99.90
12761;DHT22;6444;49.742;6.114;2024-03-07T02:31:59;9.70;99.90
12761;DHT22;6444;49.742;6.114;2024-03-07T02:34:26;9.10;99.90
12761;DHT22;6444;49.742;6.114;2024-03-07T02:36:53;9.00;99.90
12761;DHT22;6444;49.742;6.114;2024-03-07T02:39:19;9.10;99.90
12761;DHT22;6444;49.742;6.114;2024-03-07T02:41:46;9.50;99.90
12761;DHT22;6444;49.742;6.114;2024-03-07T02:44:13;9.80;99.90
12761;DHT22;6444;49.742;6.114;2024-03-07T02:46:40;9.50;99.90
12761;DHT22;6444;49.742;6.114;2024-03-07T02:49:07;9.40;99.90
12761;DHT22;6444;49.742;6.114;2024-03-07T02:51:33;9.80;99.90
12761;DHT22;6444;49.742;6.114;2024-03-07T02:54:00;9.00;99.90
12761;DHT22;6444;49.742;6.114;2024-03-07T02:56:27;9.40;99.90
12761;DHT22;6444;49.742;6.114;2024-03-07T02:58:53;9.70;99.90
12761;DHT22;6444;49.742;6.114;2024-03-07T03:01:20;9.60;99.90
12761;DHT22;6444;49.742;6.114;2024-03-07T03:03:46;9.60;99.90
12761;DHT22;6444;49.742;6.114;2024-03-07T03:06:13;9.80;99.90
12761;DHT22;6444;49.742;6.114;2024-03-07T03:08:40;10.10;99.90
12761;DHT22;6444;49.742;6.114;2024-03-07T03:11:06;9.90;99.90
12761;DHT22;6444;49.742;6.114;2024-03-07T03:13:33;10.30;99.90
12761;DHT22;6444;49.742;6.114;2024-03-07T03:16:00;10.00;99.90
12761;DHT22;6444;49.742;6.114;2024-03-07T03:18:26;9.60;99.90
12761;DHT22;6444;49.742;6.114;2024-03-07T03:20:53;9.80;99.90
12761;DHT22;6444;49.742;6.114;2024-03-07T03:23:19;10.00;99.90
12761;DHT22;6444;49.742;6.114;2024-03-07T03:25:46;9.90;99.90
12761;DHT22;6444;49.742;6.114;2024-03-07T03:28:13;10.10;99.90
12761;DHT22;6444;49.742;6.114;2024-03-07T03:30:40;9.90;99.90
12761;DHT22;6444;49.742;6.114;2024-03-07T03:33:06;10.00;99.90
12761;DHT22;6444;49.742;6.114;2024-03-07T03:35:33;9.90;99.90
12761;DHT22;6444;49.742;6.114;2024-03-07T03:38:00;9.90;99.90
12761;DHT22;6444;49.742;6.114;2024-03-07T03:40:27;9.80;99.90
12761;DHT22;6444;49.742;6.114;2024-03-07T03:42:53;9.80;99.90
12761;DHT22;6444;49.742;6.114;2024-03-07T03:45:20;9.50;99.90
12761;DHT22;6444;49.742;6.114;2024-03-07T03:47:47;9.40;99.90
12761;DHT22;6444;49.742;6.114;2024-03-07T03:50:13;9.40;99.90
12761;DHT22;6444;49.742;6.114;2024-03-07T03:52:40;9.50;99.90
12761;DHT22;6444;49.742;6.114;2024-03-07T03:55:07;9.30;99.90
12761;DHT22;6444;49.742;6.114;2024-03-07T03:57:33;8.70;99.90
12761;DHT22;6444;49.742;6.114;2024-03-07T04:00:00;8.20;99.90
12761;DHT22;6444;49.742;6.114;2024-03-07T04:02:26;8.20;99.90
12761;DHT22;6444;49.742;6.114;2024-03-07T04:04:53;8.70;99.90
12761;DHT22;6444;49.742;6.114;2024-03-07T04:07:20;8.60;99.90
12761;DHT22;6444;49.742;6.114;2024-03-07T04:09:47;8.60;99.90
12761;DHT22;6444;49.742;6.114;2024-03-07T04:12:14;8.50;99.90
12761;DHT22;6444;49.742;6.114;2024-03-07T04:14:41;8.70;99.90
12761;DHT22;6444;49.742;6.114;2024-03-07T04:17:07;8.50;99.90
12761;DHT22;6444;49.742;6.114;2024-03-07T04:19:38;8.00;99.90
12761;DHT22;6444;49.742;6.114;2024-03-07T04:22:01;8.20;99.90
12761;DHT22;6444;49.742;6.114;2024-03-07T04:24:28;8.20;99.90
12761;DHT22;6444;49.742;6.114;2024-03-07T04:26:54;8.30;99.90
12761;DHT22;6444;49.742;6.114;2024-03-07T04:29:21;7.80;99.90
12761;DHT22;6444;49.742;6.114;2024-03-07T04:31:48;7.80;99.90
12761;DHT22;6444;49.742;6.114;2024-03-07T04:34:15;7.80;99.90
12761;DHT22;6444;49.742;6.114;2024-03-07T04:36:42;8.00;99.90
12761;DHT22;6444;49.742;6.114;2024-03-07T04:39:08;8.00;99.90
12761;DHT22;6444;49.742;6.114;2024-03-07T04:41:35;7.80;99.90
12761;DHT22;6444;49.742;6.114;2024-03-07T04:44:02;7.50;99.90
12761;DHT22;6444;49.742;6.114;2024-03-07T04:46:29;7.40;99.90
12761;DHT22;6444;49.742;6.114;2024-03-07T04:48:55;7.00;99.90
12761;DHT22;6444;49.742;6.114;2024-03-07T04:51:22;7.00;99.90
12761;DHT22;6444;49.742;6.114;2024-03-07T04:53:49;7.20;99.90
12761;DHT22;6444;49.742;6.114;2024-03-07T04:56:16;7.40;99.90
12761;DHT22;6444;49.742;6.114;2024-03-07T04:58:43;7.30;99.90
12761;DHT22;6444;49.742;6.114;2024-03-07T05:01:09;7.40;99.90
12761;DHT22;6444;49.742;6.114;2024-03-07T05:03:36;7.30;99.90
12761;DHT22;6444;49.742;6.114;2024-03-07T05:06:03;7.40;99.90
12761;DHT22;6444;49.742;6.114;2024-03-07T05:08:29;7.40;99.90
12761;DHT22;6444;49.742;6.114;2024-03-07T05:10:56;6.90;99.90
12761;DHT22;6444;49.742;6.114;2024-03-07T05:13:23;6.90;99.90
12761;DHT22;6444;49.742;6.114;2024-03-07T05:15:49;6.90;99.90
12761;DHT22;6444;49.742;6.114;2024-03-07T05:18:17;6.30;99.90
12761;DHT22;6444;49.742;6.114;2024-03-07T05:20:43;6.30;99.90
12761;DHT22;6444;49.742;6.114;2024-03-07T05:23:10;6.50;99.90
12761;DHT22;6444;49.742;6.114;2024-03-07T05:25:36;6.40;99.90
12761;DHT22;6444;49.742;6.114;2024-03-07T05:28:03;6.70;99.90
12761;DHT22;6444;49.742;6.114;2024-03-07T05:30:30;6.00;99.90
12761;DHT22;6444;49.742;6.114;2024-03-07T05:32:57;5.80;99.90
12761;DHT22;6444;49.742;6.114;2024-03-07T05:35:23;6.20;99.90
12761;DHT22;6444;49.742;6.114;2024-03-07T05:37:50;6.50;99.90
12761;DHT22;6444;49.742;6.114;2024-03-07T05:40:16;6.30;99.90
12761;DHT22;6444;49.742;6.114;2024-03-07T05:42:43;6.10;99.90
12761;DHT22;6444;49.742;6.114;2024-03-07T05:45:10;6.30;99.90
12761;DHT22;6444;49.742;6.114;2024-03-07T05:47:36;5.80;99.90
12761;DHT22;6444;49.742;6.114;2024-03-07T05:50:03;5.80;99.90
12761;DHT22;6444;49.742;6.114;2024-03-07T05:52:30;5.90;99.90
12761;DHT22;6444;49.742;6.114;2024-03-07T05:54:56;5.80;99.90
12761;DHT22;6444;49.742;6.114;2024-03-07T05:57:23;5.40;99.90
12761;DHT22;6444;49.742;6.114;2024-03-07T05:59:50;5.50;99.90
12761;DHT22;6444;49.742;6.114;2024-03-07T06:02:16;6.00;99.90
12761;DHT22;6444;49.742;6.114;2024-03-07T06:04:43;5.70;99.90
12761;DHT22;6444;49.742;6.114;2024-03-07T06:07:10;5.70;99.90
12761;DHT22;6444;49.742;6.114;2024-03-07T06:09:36;5.30;99.90
12761;DHT22;6444;49.742;6.114;2024-03-07T06:12:03;5.40;99.90
12761;DHT22;6444;49.742;6.114;2024-03-07T06:14:30;5.60;99.90
12761;DHT22;6444;49.742;6.114;2024-03-07T06:16:56;5.90;99.90
12761;DHT22;6444;49.742;6.114;2024-03-07T06:19:23;6.20;99.90
12761;DHT22;6444;49.742;6.114;2024-03-07T06:21:49;6.00;99.90
12761;DHT22;6444;49.742;6.114;2024-03-07T06:24:16;5.90;99.90
12761;DHT22;6444;49.742;6.114;2024-03-07T06:26:43;6.20;99.90
12761;DHT22;6444;49.742;6.114;2024-03-07T06:29:14;6.10;99.90
12761;DHT22;6444;49.742;6.114;2024-03-07T06:31:40;6.20;99.90
12761;DHT22;6444;49.742;6.114;2024-03-07T06:34:06;6.10;99.90
12761;DHT22;6444;49.742;6.114;2024-03-07T06:36:33;6.00;99.90
12761;DHT22;6444;49.742;6.114;2024-03-07T06:39:00;6.10;99.90
12761;DHT22;6444;49.742;6.114;2024-03-07T06:41:26;6.10;99.90
12761;DHT22;6444;49.742;6.114;2024-03-07T06:43:53;6.30;99.90
12761;DHT22;6444;49.742;6.114;2024-03-07T06:46:19;6.20;99.90
12761;DHT22;6444;49.742;6.114;2024-03-07T06:48:46;6.40;99.90
12761;DHT22;6444;49.742;6.114;2024-03-07T06:51:13;6.60;99.90
12761;DHT22;6444;49.742;6.114;2024-03-07T06:53:40;6.30;99.90
12761;DHT22;6444;49.742;6.114;2024-03-07T06:56:07;6.20;99.90
12761;DHT22;6444;49.742;6.114;2024-03-07T06:58:33;6.60;99.90
12761;DHT22;6444;49.742;6.114;2024-03-07T07:01:00;6.40;99.90
12761;DHT22;6444;49.742;6.114;2024-03-07T07:03:27;7.00;99.90
12761;DHT22;6444;49.742;6.114;2024-03-07T07:05:54;7.10;99.90
12761;DHT22;6444;49.742;6.114;2024-03-07T07:08:21;7.00;99.90
12761;DHT22;6444;49.742;6.114;2024-03-07T07:10:47;7.00;99.90
12761;DHT22;6444;49.742;6.114;2024-03-07T07:13:14;7.40;99.90
12761;DHT22;6444;49.742;6.114;2024-03-07T07:15:40;7.80;99.90
12761;DHT22;6444;49.742;6.114;2024-03-07T07:18:08;8.00;99.90
12761;DHT22;6444;49.742;6.114;2024-03-07T07:20:35;8.00;99.90
12761;DHT22;6444;49.742;6.114;2024-03-07T07:23:01;8.30;99.90
12761;DHT22;6444;49.742;6.114;2024-03-07T07:25:28;8.30;99.90
12761;DHT22;6444;49.742;6.114;2024-03-07T07:27:54;8.10;99.90
12761;DHT22;6444;49.742;6.114;2024-03-07T07:30:21;8.00;99.90
12761;DHT22;6444;49.742;6.114;2024-03-07T07:32:51;7.80;99.90
12761;DHT22;6444;49.742;6.114;2024-03-07T07:35:17;8.00;99.90
12761;DHT22;6444;49.742;6.114;2024-03-07T07:37:45;8.00;99.90
12761;DHT22;6444;49.742;6.114;2024-03-07T07:40:15;7.90;99.90
12761;DHT22;6444;49.742;6.114;2024-03-07T07:42:41;7.60;99.90
12761;DHT22;6444;49.742;6.114;2024-03-07T07:45:08;7.50;99.90
12761;DHT22;6444;49.742;6.114;2024-03-07T07:47:34;7.50;99.90
12761;DHT22;6444;49.742;6.114;2024-03-07T07:50:01;8.10;99.90
12761;DHT22;6444;49.742;6.114;2024-03-07T07:52:28;8.00;99.90
12761;DHT22;6444;49.742;6.114;2024-03-07T07:54:55;9.80;99.90
12761;DHT22;6444;49.742;6.114;2024-03-07T07:57:21;11.30;99.90
12761;DHT22;6444;49.742;6.114;2024-03-07T07:59:48;12.80;99.90
12761;DHT22;6444;49.742;6.114;2024-03-07T08:02:15;13.60;99.90
12761;DHT22;6444;49.742;6.114;2024-03-07T08:04:42;16.00;99.90
12761;DHT22;6444;49.742;6.114;2024-03-07T08:07:09;16.00;99.90
12761;DHT22;6444;49.742;6.114;2024-03-07T08:09:35;16.00;99.90
12761;DHT22;6444;49.742;6.114;2024-03-07T08:12:02;16.40;99.90
12761;DHT22;6444;49.742;6.114;2024-03-07T08:14:28;14.70;99.90
12761;DHT22;6444;49.742;6.114;2024-03-07T08:16:55;14.50;99.90
12761;DHT22;6444;49.742;6.114;2024-03-07T08:19:22;14.50;99.90
12761;DHT22;6444;49.742;6.114;2024-03-07T08:21:48;14.00;99.90
12761;DHT22;6444;49.742;6.114;2024-03-07T08:24:15;15.00;99.90
12761;DHT22;6444;49.742;6.114;2024-03-07T08:26:42;15.50;99.90
12761;DHT22;6444;49.742;6.114;2024-03-07T08:29:08;15.40;99.90
12761;DHT22;6444;49.742;6.114;2024-03-07T08:31:36;15.40;99.90
12761;DHT22;6444;49.742;6.114;2024-03-07T08:34:03;15.40;99.90
12761;DHT22;6444;49.742;6.114;2024-03-07T08:36:30;16.80;99.90
12761;DHT22;6444;49.742;6.114;2024-03-07T08:38:57;16.80;99.90
12761;DHT22;6444;49.742;6.114;2024-03-07T08:41:24;17.40;99.90
12761;DHT22;6444;49.742;6.114;2024-03-07T08:43:50;17.80;99.90
12761;DHT22;6444;49.742;6.114;2024-03-07T08:46:17;17.30;99.90
12761;DHT22;6444;49.742;6.114;2024-03-07T08:48:44;16.90;99.90
12761;DHT22;6444;49.742;6.114;2024-03-07T08:51:11;15.70;99.90
12761;DHT22;6444;49.742;6.114;2024-03-07T08:53:38;15.60;99.90
12761;DHT22;6444;49.742;6.114;2024-03-07T08:56:07;17.10;99.90
12761;DHT22;6444;49.742;6.114;2024-03-07T08:58:34;18.40;99.90
12761;DHT22;6444;49.742;6.114;2024-03-07T09:01:00;19.40;99.90
12761;DHT22;6444;49.742;6.114;2024-03-07T09:03:27;19.00;99.90
12761;DHT22;6444;49.742;6.114;2024-03-07T09:05:54;18.10;99.90
12761;DHT22;6444;49.742;6.114;2024-03-07T09:08:21;16.00;99.90
12761;DHT22;6444;49.742;6.114;2024-03-07T09:10:48;15.90;99.90
12761;DHT22;6444;49.742;6.114;2024-03-07T09:13:14;15.60;99.90
12761;DHT22;6444;49.742;6.114;2024-03-07T09:15:41;15.60;99.90
12761;DHT22;6444;49.742;6.114;2024-03-07T09:18:08;15.60;99.90
12761;DHT22;6444;49.742;6.114;2024-03-07T09:20:34;15.20;99.90
12761;DHT22;6444;49.742;6.114;2024-03-07T09:23:01;15.40;99.90
12761;DHT22;6444;49.742;6.114;2024-03-07T09:25:28;15.00;99.90
12761;DHT22;6444;49.742;6.114;2024-03-07T09:27:55;14.90;99.90
12761;DHT22;6444;49.742;6.114;2024-03-07T09:30:22;14.70;99.90
12761;DHT22;6444;49.742;6.114;2024-03-07T09:32:48;14.40;99.90
12761;DHT22;6444;49.742;6.114;2024-03-07T09:35:15;13.00;99.90
12761;DHT22;6444;49.742;6.114;2024-03-07T09:37:42;12.60;99.90
12761;DHT22;6444;49.742;6.114;2024-03-07T09:40:08;12.60;99.90
12761;DHT22;6444;49.742;6.114;2024-03-07T09:42:44;13.30;99.90
12761;DHT22;6444;49.742;6.114;2024-03-07T09:45:13;12.70;99.90
12761;DHT22;6444;49.742;6.114;2024-03-07T09:47:37;12.40;99.90
12761;DHT22;6444;49.742;6.114;2024-03-07T09:50:04;12.50;99.90
12761;DHT22;6444;49.742;6.114;2024-03-07T09:52:30;12.60;99.90
12761;DHT22;6444;49.742;6.114;2024-03-07T09:54:57;13.80;99.90
12761;DHT22;6444;49.742;6.114;2024-03-07T09:57:24;13.20;99.90
12761;DHT22;6444;49.742;6.114;2024-03-07T09:59:50;12.90;99.90
12761;DHT22;6444;49.742;6.114;2024-03-07T10:02:17;13.30;99.90
12761;DHT22;6444;49.742;6.114;2024-03-07T10:04:43;12.70;99.90
12761;DHT22;6444;49.742;6.114;2024-03-07T10:07:12;13.50;99.90
12761;DHT22;6444;49.742;6.114;2024-03-07T10:09:39;14.60;99.90
12761;DHT22;6444;49.742;6.114;2024-03-07T10:12:06;14.40;99.90
12761;DHT22;6444;49.742;6.114;2024-03-07T10:14:32;13.30;99.90
12761;DHT22;6444;49.742;6.114;2024-03-07T10:16:59;12.90;99.90
12761;DHT22;6444;49.742;6.114;2024-03-07T10:19:28;13.00;99.90
12761;DHT22;6444;49.742;6.114;2024-03-07T10:21:52;13.10;99.90
12761;DHT22;6444;49.742;6.114;2024-03-07T10:24:20;13.00;99.90
12761;DHT22;6444;49.742;6.114;2024-03-07T10:26:46;13.20;99.90
12761;DHT22;6444;49.742;6.114;2024-03-07T10:29:12;11.50;99.90
12761;DHT22;6444;49.742;6.114;2024-03-07T10:31:40;10.10;99.90
12761;DHT22;6444;49.742;6.114;2024-03-07T10:34:06;10.10;99.90
12761;DHT22;6444;49.742;6.114;2024-03-07T10:36:33;9.90;99.90
12761;DHT22;6444;49.742;6.114;2024-03-07T10:39:00;10.40;99.90
12761;DHT22;6444;49.742;6.114;2024-03-07T10:41:29;11.30;99.90
12761;DHT22;6444;49.742;6.114;2024-03-07T10:43:57;10.40;99.90
12761;DHT22;6444;49.742;6.114;2024-03-07T10:46:22;10.00;99.90
12761;DHT22;6444;49.742;6.114;2024-03-07T10:48:49;9.90;99.90
12761;DHT22;6444;49.742;6.114;2024-03-07T10:51:25;9.90;99.90
12761;DHT22;6444;49.742;6.114;2024-03-07T10:59:19;11.30;99.90
12761;DHT22;6444;49.742;6.114;2024-03-07T11:04:31;10.60;99.90
12761;DHT22;6444;49.742;6.114;2024-03-07T11:06:57;10.60;99.90
12761;DHT22;6444;49.742;6.114;2024-03-07T11:09:24;10.60;99.90
12761;DHT22;6444;49.742;6.114;2024-03-07T11:11:51;12.30;99.90
12761;DHT22;6444;49.742;6.114;2024-03-07T11:14:18;12.30;99.90
12761;DHT22;6444;49.742;6.114;2024-03-07T11:16:44;12.40;99.90
12761;DHT22;6444;49.742;6.114;2024-03-07T11:19:26;11.80;99.90
12761;DHT22;6444;49.742;6.114;2024-03-07T11:21:53;12.00;99.90
12761;DHT22;6444;49.742;6.114;2024-03-07T11:24:26;12.10;99.90
12761;DHT22;6444;49.742;6.114;2024-03-07T11:26:57;11.50;99.90
12761;DHT22;6444;49.742;6.114;2024-03-07T11:29:49;11.80;99.90
12761;DHT22;6444;49.742;6.114;2024-03-07T11:32:15;11.80;99.90
12761;DHT22;6444;49.742;6.114;2024-03-07T11:34:42;12.10;99.90
12761;DHT22;6444;49.742;6.114;2024-03-07T11:37:09;10.20;99.90
12761;DHT22;6444;49.742;6.114;2024-03-07T11:39:45;10.20;99.90
12761;DHT22;6444;49.742;6.114;2024-03-07T11:44:54;9.40;99.90
12761;DHT22;6444;49.742;6.114;2024-03-07T11:47:20;9.30;99.90
12761;DHT22;6444;49.742;6.114;2024-03-07T11:49:47;9.30;99.90
12761;DHT22;6444;49.742;6.114;2024-03-07T11:52:16;9.30;99.90
12761;DHT22;6444;49.742;6.114;2024-03-07T11:54:42;9.50;99.90
12761;DHT22;6444;49.742;6.114;2024-03-07T11:57:14;9.70;99.90
12761;DHT22;6444;49.742;6.114;2024-03-07T11:59:40;10.10;99.90
12761;DHT22;6444;49.742;6.114;2024-03-07T12:02:06;10.00;99.90
12761;DHT22;6444;49.742;6.114;2024-03-07T12:04:32;10.00;99.90
12761;DHT22;6444;49.742;6.114;2024-03-07T12:06:59;10.00;99.90
12761;DHT22;6444;49.742;6.114;2024-03-07T12:09:27;9.30;99.90
12761;DHT22;6444;49.742;6.114;2024-03-07T12:11:53;9.20;99.90
12761;DHT22;6444;49.742;6.114;2024-03-07T12:14:20;9.30;99.90
12761;DHT22;6444;49.742;6.114;2024-03-07T12:16:47;9.50;99.90
12761;DHT22;6444;49.742;6.114;2024-03-07T12:19:14;9.50;99.90
12761;DHT22;6444;49.742;6.114;2024-03-07T12:21:40;9.00;99.90
12761;DHT22;6444;49.742;6.114;2024-03-07T12:24:11;9.20;99.90
12761;DHT22;6444;49.742;6.114;2024-03-07T12:26:37;9.70;99.90
12761;DHT22;6444;49.742;6.114;2024-03-07T12:29:11;9.00;99.90
12761;DHT22;6444;49.742;6.114;2024-03-07T12:31:35;9.00;99.90
12761;DHT22;6444;49.742;6.114;2024-03-07T12:34:02;9.00;99.90
12761;DHT22;6444;49.742;6.114;2024-03-07T12:36:28;9.10;99.90
12761;DHT22;6444;49.742;6.114;2024-03-07T12:38:54;9.10;99.90
12761;DHT22;6444;49.742;6.114;2024-03-07T12:41:21;8.70;99.90
12761;DHT22;6444;49.742;6.114;2024-03-07T12:43:48;8.50;99.90
12761;DHT22;6444;49.742;6.114;2024-03-07T12:46:14;8.20;99.90
12761;DHT22;6444;49.742;6.114;2024-03-07T12:48:41;8.70;99.90
12761;DHT22;6444;49.742;6.114;2024-03-07T12:51:09;9.40;99.90
12761;DHT22;6444;49.742;6.114;2024-03-07T12:53:34;9.10;99.90
12761;DHT22;6444;49.742;6.114;2024-03-07T12:56:01;9.80;99.90
12761;DHT22;6444;49.742;6.114;2024-03-07T12:58:27;9.80;99.90
12761;DHT22;6444;49.742;6.114;2024-03-07T13:00:57;10.00;99.90
12761;DHT22;6444;49.742;6.114;2024-03-07T13:03:26;10.10;99.90
12761;DHT22;6444;49.742;6.114;2024-03-07T13:05:59;10.50;99.90
12761;DHT22;6444;49.742;6.114;2024-03-07T13:08:26;10.30;99.90
12761;DHT22;6444;49.742;6.114;2024-03-07T13:10:52;10.30;99.90
12761;DHT22;6444;49.742;6.114;2024-03-07T13:13:19;10.30;99.90
12761;DHT22;6444;49.742;6.114;2024-03-07T13:15:45;9.60;99.90
12761;DHT22;6444;49.742;6.114;2024-03-07T13:18:13;9.30;99.90
12761;DHT22;6444;49.742;6.114;2024-03-07T13:20:39;9.30;99.90
12761;DHT22;6444;49.742;6.114;2024-03-07T13:23:06;9.30;99.90
12761;DHT22;6444;49.742;6.114;2024-03-07T13:25:33;9.00;99.90
12761;DHT22;6444;49.742;6.114;2024-03-07T13:28:09;9.10;99.90
12761;DHT22;6444;49.742;6.114;2024-03-07T13:30:35;9.40;99.90
12761;DHT22;6444;49.742;6.114;2024-03-07T13:33:01;9.80;99.90
12761;DHT22;6444;49.742;6.114;2024-03-07T13:35:28;9.80;99.90
12761;DHT22;6444;49.742;6.114;2024-03-07T13:37:55;9.90;99.90
12761;DHT22;6444;49.742;6.114;2024-03-07T13:40:24;9.70;99.90
12761;DHT22;6444;49.742;6.114;2024-03-07T13:42:51;9.90;99.90
12761;DHT22;6444;49.742;6.114;2024-03-07T13:45:27;9.80;99.90
12761;DHT22;6444;49.742;6.114;2024-03-07T13:47:53;9.80;99.90
12761;DHT22;6444;49.742;6.114;2024-03-07T13:50:20;10.10;99.90
12761;DHT22;6444;49.742;6.114;2024-03-07T13:52:46;10.00;99.90
12761;DHT22;6444;49.742;6.114;2024-03-07T13:55:13;10.40;99.90
12761;DHT22;6444;49.742;6.114;2024-03-07T13:57:43;10.30;99.90
12761;DHT22;6444;49.742;6.114;2024-03-07T14:00:22;10.30;99.90
12761;DHT22;6444;49.742;6.114;2024-03-07T14:02:57;10.40;99.90
12761;DHT22;6444;49.742;6.114;2024-03-07T14:08:13;9.50;99.90
12761;DHT22;6444;49.742;6.114;2024-03-07T14:16:21;9.70;99.90
12761;DHT22;6444;49.742;6.114;2024-03-07T14:21:48;9.80;99.90
12761;DHT22;6444;49.742;6.114;2024-03-07T14:24:34;10.00;99.90
12761;DHT22;6444;49.742;6.114;2024-03-07T14:27:19;10.30;99.90
12761;DHT22;6444;49.742;6.114;2024-03-07T14:32:36;10.40;99.90
12761;DHT22;6444;49.742;6.114;2024-03-07T14:35:14;10.20;99.90
12761;DHT22;6444;49.742;6.114;2024-03-07T14:37:36;10.20;99.90
12761;DHT22;6444;49.742;6.114;2024-03-07T14:40:09;10.20;99.90
12761;DHT22;6444;49.742;6.114;2024-03-07T14:42:54;10.60;99.90
12761;DHT22;6444;49.742;6.114;2024-03-07T14:45:05;10.40;99.90
12761;DHT22;6444;49.742;6.114;2024-03-07T14:47:31;10.10;99.90
12761;DHT22;6444;49.742;6.114;2024-03-07T14:49:58;10.10;99.90
12761;DHT22;6444;49.742;6.114;2024-03-07T14:52:25;10.20;99.90
12761;DHT22;6444;49.742;6.114;2024-03-07T14:54:51;10.30;99.90
12761;DHT22;6444;49.742;6.114;2024-03-07T14:57:18;10.40;99.90
12761;DHT22;6444;49.742;6.114;2024-03-07T14:59:44;10.20;99.90
12761;DHT22;6444;49.742;6.114;2024-03-07T15:02:11;10.30;99.90
12761;DHT22;6444;49.742;6.114;2024-03-07T15:04:38;10.60;99.90
12761;DHT22;6444;49.742;6.114;2024-03-07T15:07:04;10.40;99.90
12761;DHT22;6444;49.742;6.114;2024-03-07T15:09:31;10.10;99.90
12761;DHT22;6444;49.742;6.114;2024-03-07T15:11:58;10.30;99.90
12761;DHT22;6444;49.742;6.114;2024-03-07T15:14:25;10.40;99.90
12761;DHT22;6444;49.742;6.114;2024-03-07T15:16:52;10.40;99.90
12761;DHT22;6444;49.742;6.114;2024-03-07T15:19:18;10.20;99.90
12761;DHT22;6444;49.742;6.114;2024-03-07T15:21:45;10.40;99.90
12761;DHT22;6444;49.742;6.114;2024-03-07T15:24:11;10.50;99.90
12761;DHT22;6444;49.742;6.114;2024-03-07T15:26:38;10.40;99.90
12761;DHT22;6444;49.742;6.114;2024-03-07T15:29:06;10.10;99.90
12761;DHT22;6444;49.742;6.114;2024-03-07T15:31:32;10.00;99.90
12761;DHT22;6444;49.742;6.114;2024-03-07T15:33:59;9.90;99.90
12761;DHT22;6444;49.742;6.114;2024-03-07T15:36:25;9.80;99.90
12761;DHT22;6444;49.742;6.114;2024-03-07T15:38:52;9.70;99.90
12761;DHT22;6444;49.742;6.114;2024-03-07T15:41:19;9.70;99.90
12761;DHT22;6444;49.742;6.114;2024-03-07T15:43:45;9.70;99.90
12761;DHT22;6444;49.742;6.114;2024-03-07T15:46:12;9.60;99.90
12761;DHT22;6444;49.742;6.114;2024-03-07T15:48:39;9.70;99.90
12761;DHT22;6444;49.742;6.114;2024-03-07T15:51:05;9.70;99.90
12761;DHT22;6444;49.742;6.114;2024-03-07T15:53:32;9.60;99.90
12761;DHT22;6444;49.742;6.114;2024-03-07T15:55:58;9.90;99.90
12761;DHT22;6444;49.742;6.114;2024-03-07T15:58:25;9.80;99.90
12761;DHT22;6444;49.742;6.114;2024-03-07T16:00:52;10.10;99.90
12761;DHT22;6444;49.742;6.114;2024-03-07T16:03:19;10.10;99.90
12761;DHT22;6444;49.742;6.114;2024-03-07T16:05:46;10.10;99.90
12761;DHT22;6444;49.742;6.114;2024-03-07T16:08:13;10.20;99.90
12761;DHT22;6444;49.742;6.114;2024-03-07T16:10:39;10.60;99.90
12761;DHT22;6444;49.742;6.114;2024-03-07T16:13:09;10.80;99.90
12761;DHT22;6444;49.742;6.114;2024-03-07T16:15:35;10.90;99.90
12761;DHT22;6444;49.742;6.114;2024-03-07T16:18:02;10.80;99.90